Time;durP1;ratioP1;P1;durP2;ratioP2;P2;SDS_P1;SDS_P2;PMS_P1;PMS_P2;Temp;Humidity;BMP_temperature;BMP_pressure;BME280_temperature;BME280_humidity;BME280_pressure;Samples;Min_cycle;Max_cycle;Signal;HPM_P1;HPM_P2
2023/10/17 00:01:48;;;;;;;;;;;;;;;7.17;100.00;102005.66;5075895;28;19916;-92
2023/10/17 00:06:42;;;;;;;;;;;;;;;7.16;100.00;102009.03;5094604;28;19953;-92
2023/10/17 00:09:10;;;;;;;;;;;;;;;7.14;100.00;102000.28;5088582;28;19916;-92
2023/10/17 00:14:35;;;;;;;;;;;;;;;7.13;100.00;101994.19;5057502;28;19912;-92
2023/10/17 00:17:04;;;;;;;;;;;;;;;7.10;100.00;101994.03;5076704;28;20258;-92
2023/10/17 00:19:32;;;;;;;;;;;;;;;7.10;100.00;101999.22;5076569;28;19961;-92
2023/10/17 00:21:59;;;;;;;;;;;;;;;7.09;100.00;102002.59;5094283;28;19958;-93
2023/10/17 00:24:24;;;;;;;;;;;;;;;7.06;100.00;101992.06;5084705;28;19984;-92
2023/10/17 00:26:49;;;;;;;;;;;;;;;7.04;100.00;101992.78;5075945;28;20722;-92
2023/10/17 00:29:15;;;;;;;;;;;;;;;7.02;100.00;101982.31;5075774;28;19985;-91
2023/10/17 00:31:41;;;;;;;;;;;;;;;7.02;100.00;101987.50;5089787;28;19931;-92
2023/10/17 00:34:16;;;;;;;;;;;;;;;7.00;100.00;101983.94;5092713;28;20007;-92
2023/10/17 00:36:49;;;;;;;;;;;;;;;6.99;100.00;101989.06;5079171;28;19938;-91
2023/10/17 00:39:22;;;;;;;;;;;;;;;6.96;100.00;101975.09;5094036;28;19916;-92
2023/10/17 00:41:52;;;;;;;;;;;;;;;6.95;100.00;101980.19;5075718;28;19970;-92
2023/10/17 00:44:29;;;;;;;;;;;;;;;6.93;100.00;101971.44;5075551;28;19919;-92
2023/10/17 00:46:55;;;;;;;;;;;;;;;6.91;100.00;101970.50;5093709;28;19912;-92
2023/10/17 00:49:21;;;;;;;;;;;;;;;6.89;100.00;101966.91;5082658;28;20394;-92
2023/10/17 00:51:48;;;;;;;;;;;;;;;6.86;100.00;101977.09;5075431;28;19912;-92
2023/10/17 00:54:14;;;;;;;;;;;;;;;6.84;100.00;101978.72;5101441;28;19916;-92
2023/10/17 00:56:43;;;;;;;;;;;;;;;6.83;100.00;101974.34;5093826;28;19915;-92
2023/10/17 00:59:09;;;;;;;;;;;;;;;6.82;100.00;101977.72;5092278;28;19920;-92
2023/10/17 01:01:34;;;;;;;;;;;;;;;6.79;100.00;101976.75;5093288;28;20362;-93
2023/10/17 01:04:00;;;;;;;;;;;;;;;6.77;100.00;101973.16;5074980;28;20004;-92
2023/10/17 01:08:58;;;;;;;;;;;;;;;6.78;100.00;101976.66;5093365;28;19916;-92
2023/10/17 01:11:27;;;;;;;;;;;;;;;6.79;100.00;101976.75;5088991;28;19973;-92
2023/10/17 01:13:53;;;;;;;;;;;;;;;6.80;100.00;101975.03;5093271;28;19923;-91
2023/10/17 01:16:19;;;;;;;;;;;;;;;6.82;100.00;101977.72;5091798;28;19912;-92
2023/10/17 01:18:44;;;;;;;;;;;;;;;6.82;100.00;101980.31;5093491;28;19912;-92
2023/10/17 01:21:13;;;;;;;;;;;;;;;6.83;100.00;101977.81;5074981;28;20018;-91
2023/10/17 01:23:39;;;;;;;;;;;;;;;6.83;100.00;101976.94;5074698;28;19913;-92
2023/10/17 01:26:08;;;;;;;;;;;;;;;6.83;100.00;101972.63;5108602;28;19912;-92
2023/10/17 01:28:34;;;;;;;;;;;;;;;6.85;100.00;101971.03;5092632;28;19965;-92
2023/10/17 01:31:01;;;;;;;;;;;;;;;6.88;100.00;101970.28;5074431;28;19923;-92
2023/10/17 01:33:29;;;;;;;;;;;;;;;6.89;100.00;101956.53;5108496;28;19924;-91
2023/10/17 01:35:57;;;;;;;;;;;;;;;6.89;100.00;101951.34;5093202;28;19912;-92
2023/10/17 01:38:26;;;;;;;;;;;;;;;6.88;100.00;101960.84;5087347;28;20528;-91
2023/10/17 01:40:51;;;;;;;;;;;;;;;6.86;100.00;101962.44;5085844;28;19912;-91
2023/10/17 01:43:16;;;;;;;;;;;;;;;6.87;100.00;101959.03;5091431;28;19912;-92
2023/10/17 01:45:42;;;;;;;;;;;;;;;6.82;100.00;101952.69;5080646;28;20447;-93
2023/10/17 01:48:11;;;;;;;;;;;;;;;6.83;100.00;101963.97;5074092;28;19916;-92
2023/10/17 01:50:36;;;;;;;;;;;;;;;6.81;100.00;101960.38;5074748;28;20401;-91
2023/10/17 01:53:12;;;;;;;;;;;;;;;6.81;100.00;101953.53;5074277;28;19948;-92
2023/10/17 01:55:39;;;;;;;;;;;;;;;6.80;100.00;101943.97;5074616;28;19981;-92
2023/10/17 01:58:07;;;;;;;;;;;;;;;6.78;100.00;101932.63;5054618;28;19947;-92
2023/10/17 02:00:38;;;;;;;;;;;;;;;6.76;100.00;101929.97;5068089;28;19912;-92
2023/10/17 02:03:07;;;;;;;;;;;;;;;6.74;100.00;101931.53;5074646;28;19913;-92
2023/10/17 02:05:34;;;;;;;;;;;;;;;6.71;100.00;101936.56;5084609;28;20483;-92
2023/10/17 02:08:00;;;;;;;;;;;;;;;6.70;100.00;101926.13;5087852;28;19916;-92
2023/10/17 02:10:28;;;;;;;;;;;;;;;6.68;100.00;101914.78;5074136;28;19965;-92
2023/10/17 02:12:54;;;;;;;;;;;;;;;6.66;100.00;101913.78;5074077;28;20323;-92
2023/10/17 02:15:19;;;;;;;;;;;;;;;6.63;100.00;101921.38;5074195;28;19912;-92
2023/10/17 02:17:48;;;;;;;;;;;;;;;6.59;100.00;101921.22;5075697;28;19912;-92
2023/10/17 02:22:54;;;;;;;;;;;;;;;6.61;100.00;101905.75;5092017;28;19908;-92
2023/10/17 02:25:28;;;;;;;;;;;;;;;6.58;100.00;101895.25;5090578;28;19912;-92
2023/10/17 02:27:53;;;;;;;;;;;;;;;6.59;100.00;101891.84;5090916;28;19961;-92
2023/10/17 02:30:19;;;;;;;;;;;;;;;6.58;100.00;101905.59;5090564;28;19920;-92
2023/10/17 02:32:51;;;;;;;;;;;;;;;6.57;100.00;101914.16;5074496;28;19927;-92
2023/10/17 02:35:20;;;;;;;;;;;;;;;6.57;100.00;101914.16;5091449;28;20448;-92
2023/10/17 02:37:46;;;;;;;;;;;;;;;6.53;100.00;101909.59;5073757;28;19904;-92
2023/10/17 02:40:20;;;;;;;;;;;;;;;6.52;100.00;101919.09;5107338;28;19912;-91
2023/10/17 02:42:46;;;;;;;;;;;;;;;6.52;100.00;101923.38;5073265;28;20042;-92
2023/10/17 02:45:11;;;;;;;;;;;;;;;6.51;100.00;101919.88;5073690;28;19955;-92
2023/10/17 02:47:37;;;;;;;;;;;;;;;6.51;100.00;101919.88;5089389;28;19970;-92
2023/10/17 02:50:19;;;;;;;;;;;;;;;6.51;100.00;101921.59;5090768;28;19916;-92
2023/10/17 02:52:51;;;;;;;;;;;;;;;6.51;100.00;101921.59;5092142;28;19912;-91
2023/10/17 02:55:23;;;;;;;;;;;;;;;6.51;100.00;101916.41;5090604;28;19919;-92
2023/10/17 02:57:48;;;;;;;;;;;;;;;6.50;100.00;101906.84;5094582;28;19912;-92
2023/10/17 03:00:21;;;;;;;;;;;;;;;6.50;100.00;101905.13;5073582;28;19912;-92
2023/10/17 03:02:48;;;;;;;;;;;;;;;6.48;100.00;101916.22;5091536;28;19912;-92
2023/10/17 03:05:13;;;;;;;;;;;;;;;6.49;100.00;101918.00;5073434;28;19912;-92
2023/10/17 03:07:39;;;;;;;;;;;;;;;6.48;100.00;101903.28;5091894;28;20413;-92
2023/10/17 03:10:04;;;;;;;;;;;;;;;6.48;100.00;101903.28;5091948;28;19962;-91
2023/10/17 03:12:29;;;;;;;;;;;;;;;6.46;100.00;101907.47;5091847;28;20286;-92
2023/10/17 03:17:23;;;;;;;;;;;;;;;6.43;100.00;101898.72;5091567;28;19926;-92
2023/10/17 03:19:48;;;;;;;;;;;;;;;6.42;100.00;101907.28;5090534;28;19913;-91
2023/10/17 03:22:16;;;;;;;;;;;;;;;6.41;100.00;101894.25;5091760;28;19916;-92
2023/10/17 03:24:45;;;;;;;;;;;;;;;6.40;100.00;101906.31;5081153;28;19912;-91
2023/10/17 03:27:11;;;;;;;;;;;;;;;6.40;100.00;101905.41;5090435;28;19912;-92
2023/10/17 03:29:41;;;;;;;;;;;;;;;6.38;100.00;101905.31;5090889;28;19924;-92
2023/10/17 03:32:12;;;;;;;;;;;;;;;6.36;100.00;101906.06;5091601;28;19920;-92
2023/10/17 03:34:45;;;;;;;;;;;;;;;6.34;100.00;101908.53;5107703;28;19912;-92
2023/10/17 03:39:54;;;;;;;;;;;;;;;6.32;100.00;101920.50;5091901;28;20374;-92
2023/10/17 03:45:12;;;;;;;;;;;;;;;6.33;100.00;101905.88;5091418;28;19924;-92
2023/10/17 03:47:38;;;;;;;;;;;;;;;6.33;100.00;101914.53;5079131;28;20484;-92
2023/10/17 03:50:07;;;;;;;;;;;;;;;6.34;100.00;101913.72;5093318;28;19916;-92
2023/10/17 03:52:32;;;;;;;;;;;;;;;6.36;100.00;101916.44;5077141;28;19912;-92
2023/10/17 03:54:57;;;;;;;;;;;;;;;6.38;100.00;101912.22;5076266;28;20581;-91
2023/10/17 03:57:26;;;;;;;;;;;;;;;6.38;100.00;101910.50;5076718;28;19943;-92
2023/10/17 03:59:55;;;;;;;;;;;;;;;6.38;100.00;101920.88;5086670;28;19916;-92
2023/10/17 04:02:21;;;;;;;;;;;;;;;6.38;100.00;101914.81;5094490;28;19919;-91
2023/10/17 04:04:53;;;;;;;;;;;;;;;6.38;100.00;101912.22;5093113;28;19908;-92
2023/10/17 04:07:23;;;;;;;;;;;;;;;6.39;100.00;101916.59;5076629;28;19965;-92
2023/10/17 04:10:04;;;;;;;;;;;;;;;6.40;100.00;101920.94;5094766;28;19939;-92
2023/10/17 04:12:38;;;;;;;;;;;;;;;6.41;100.00;101915.84;5098781;28;20384;-92
2023/10/17 04:15:07;;;;;;;;;;;;;;;6.40;100.00;101928.72;5076511;28;20482;-92
2023/10/17 04:17:35;;;;;;;;;;;;;;;6.40;100.00;101919.28;5076132;28;20404;-91
2023/10/17 04:20:11;;;;;;;;;;;;;;;6.42;100.00;101921.94;5075986;28;19916;-92
2023/10/17 04:22:38;;;;;;;;;;;;;;;6.38;100.00;101915.69;5075711;28;19991;-92
2023/10/17 04:25:19;;;;;;;;;;;;;;;6.39;100.00;101920.06;5075913;28;19912;-92
2023/10/17 04:27:45;;;;;;;;;;;;;;;6.40;100.00;101921.88;5094166;28;19920;-92
2023/10/17 04:30:15;;;;;;;;;;;;;;;6.40;100.00;101924.44;5092944;28;20266;-92
2023/10/17 04:32:42;;;;;;;;;;;;;;;6.39;100.00;101922.66;5085104;28;20015;-92
2023/10/17 04:35:08;;;;;;;;;;;;;;;6.39;100.00;101922.66;5094423;28;20464;-92
2023/10/17 04:37:34;;;;;;;;;;;;;;;6.39;100.00;101921.78;5076074;28;19912;-92
2023/10/17 04:45:44;;;;;;;;;;;;;;;6.36;100.00;101925.06;5088356;28;20471;-91
2023/10/17 04:48:17;;;;;;;;;;;;;;;6.35;100.00;101927.56;5075204;28;19967;-92
2023/10/17 04:50:45;;;;;;;;;;;;;;;6.35;100.00;101927.56;5093739;28;19974;-92
2023/10/17 04:53:19;;;;;;;;;;;;;;;6.34;100.00;101918.88;5092257;28;19916;-92
2023/10/17 04:56:00;;;;;;;;;;;;;;;6.36;100.00;101916.44;5093608;28;20290;-92
2023/10/17 04:58:39;;;;;;;;;;;;;;;6.35;100.00;101910.34;5092066;28;20286;-92
2023/10/17 05:03:45;;;;;;;;;;;;;;;6.35;100.00;101915.50;5093527;28;20003;-92
2023/10/17 06:17:28;;;;;;;;;;;;;;;6.35;100.00;101884.44;5092518;28;19935;-92
2023/10/17 06:19:53;;;;;;;;;;;;;;;6.37;100.00;101887.13;5078184;28;20370;-92
2023/10/17 06:30:48;;;;;;;;;;;;;;;6.35;100.00;101906.88;5079328;28;21795;-92
2023/10/17 06:33:16;;;;;;;;;;;;;;;6.34;100.00;101898.19;5085895;28;19928;-92
2023/10/17 06:35:44;;;;;;;;;;;;;;;6.37;100.00;101905.25;5091201;28;19927;-92
2023/10/17 06:38:10;;;;;;;;;;;;;;;6.36;100.00;101906.06;5085948;28;19959;-92
2023/10/17 06:40:44;;;;;;;;;;;;;;;6.36;100.00;101906.06;5073667;28;19960;-91
2023/10/17 06:43:28;;;;;;;;;;;;;;;6.38;100.00;101907.91;5085228;28;20052;-91
2023/10/17 06:45:55;;;;;;;;;;;;;;;6.38;100.00;101910.50;5091642;28;20045;-92
2023/10/17 06:48:31;;;;;;;;;;;;;;;6.40;100.00;101916.69;5091733;28;19995;-92
2023/10/17 06:53:42;;;;;;;;;;;;;;;6.42;100.00;101922.81;5092363;28;20046;-91
2023/10/17 06:56:09;;;;;;;;;;;;;;;6.44;100.00;101918.66;5090747;28;20014;-91
2023/10/17 06:58:35;;;;;;;;;;;;;;;6.46;100.00;101918.75;5090746;28;19912;-92
2023/10/17 07:01:04;;;;;;;;;;;;;;;6.49;100.00;101918.00;5090151;28;19916;-93
2023/10/17 07:03:35;;;;;;;;;;;;;;;6.50;100.00;101922.38;5090988;28;19913;-93
2023/10/17 07:06:13;;;;;;;;;;;;;;;6.52;100.00;101920.78;5074306;28;19912;-92
2023/10/17 07:08:39;;;;;;;;;;;;;;;6.54;100.00;101916.56;5073848;28;19916;-92
2023/10/17 07:16:45;;;;;;;;;;;;;;;6.57;100.00;101906.38;5091780;28;19912;-93
2023/10/17 07:22:17;;;;;;;;;;;;;;;6.63;100.00;101909.31;5092434;28;20386;-92
2023/10/17 07:24:52;;;;;;;;;;;;;;;6.66;100.00;101906.91;5095817;28;19934;-92
2023/10/17 07:33:11;;;;;;;;;;;;;;;6.73;100.00;101903.84;5041917;28;19976;-92
2023/10/17 07:35:43;;;;;;;;;;;;;;;6.75;100.00;101907.44;5067509;28;20003;-92
2023/10/17 07:38:13;;;;;;;;;;;;;;;6.81;100.00;101916.34;5077541;28;19908;-92
2023/10/17 07:43:07;;;;;;;;;;;;;;;6.82;100.00;101920.72;5095553;28;19918;-91
2023/10/17 07:45:38;;;;;;;;;;;;;;;6.82;100.00;101918.13;5094069;28;19943;-92
2023/10/17 07:48:25;;;;;;;;;;;;;;;6.82;100.00;101910.38;5094136;28;19912;-91
2023/10/17 07:50:51;;;;;;;;;;;;;;;6.85;100.00;101913.13;5093909;28;19920;-92
2023/10/17 07:53:19;;;;;;;;;;;;;;;6.86;100.00;101920.09;5089757;28;20396;-92
2023/10/17 07:55:49;;;;;;;;;;;;;;;6.86;100.00;101910.63;5078921;28;19966;-92
2023/10/17 07:58:17;;;;;;;;;;;;;;;6.88;100.00;101913.28;5085980;28;19923;-92
2023/10/17 08:00:48;;;;;;;;;;;;;;;6.87;100.00;101904.63;5082989;28;19950;-91
2023/10/17 08:03:19;;;;;;;;;;;;;;;6.85;100.00;101907.94;5097577;28;19912;-92
2023/10/17 08:06:05;;;;;;;;;;;;;;;6.86;100.00;101905.44;5112474;27;19955;-92
2023/10/17 08:08:42;;;;;;;;;;;;;;;6.85;100.00;101900.16;5079104;28;19931;-91
2023/10/17 08:11:19;;;;;;;;;;;;;;;6.81;100.00;101895.63;5110251;28;19940;-92
2023/10/17 08:13:48;;;;;;;;;;;;;;;6.82;100.00;101907.78;5078195;28;19909;-92
2023/10/17 08:16:28;;;;;;;;;;;;;;;6.82;100.00;101903.47;5081890;28;20290;-92
2023/10/17 08:21:48;;;;;;;;;;;;;;;6.84;100.00;101901.88;5100543;28;19966;-92
2023/10/17 08:24:14;;;;;;;;;;;;;;;6.90;100.00;101909.09;5082661;28;19950;-92
2023/10/17 08:26:42;;;;;;;;;;;;;;;6.93;100.00;101906.69;5076908;28;19951;-92
2023/10/17 08:29:11;;;;;;;;;;;;;;;6.96;100.00;101899.94;5088651;28;19917;-92
2023/10/17 08:31:36;;;;;;;;;;;;;;;6.96;100.00;101891.31;5084888;28;19923;-92
2023/10/17 08:36:53;;;;;;;;;;;;;;;7.02;100.00;101895.94;5074261;28;19913;-92
2023/10/17 08:44:50;;;;;;;;;;;;;;;7.17;100.00;101881.22;5042632;28;20003;-91
2023/10/17 08:47:25;;;;;;;;;;;;;;;7.20;100.00;101896.03;5050052;28;19956;-91
2023/10/17 08:49:51;;;;;;;;;;;;;;;7.25;100.00;101892.00;5053228;28;19971;-92
2023/10/17 08:52:23;;;;;;;;;;;;;;;7.31;100.00;101893.22;5060446;28;19916;-91
2023/10/17 08:54:48;;;;;;;;;;;;;;;7.33;100.00;101901.09;5073280;28;19948;-92
2023/10/17 08:57:14;;;;;;;;;;;;;;;7.38;100.00;101902.22;5089269;28;19948;-92
2023/10/17 09:02:15;;;;;;;;;;;;;;;7.47;100.00;101902.72;5084415;28;19916;-92
2023/10/17 09:04:43;;;;;;;;;;;;;;;7.54;100.00;101908.22;5080879;28;19961;-91
2023/10/17 09:07:09;;;;;;;;;;;;;;;7.64;100.00;101902.72;5093470;28;19946;-90
2023/10/17 09:09:34;;;;;;;;;;;;;;;7.69;100.00;101901.28;5067807;28;19972;-92
2023/10/17 09:12:08;;;;;;;;;;;;;;;7.71;100.00;101899.63;5076993;28;19962;-92
2023/10/17 09:14:36;;;;;;;;;;;;;;;7.75;100.00;101898.06;5063137;28;20305;-92
2023/10/17 09:20:16;;;;;;;;;;;;;;;7.79;100.00;101900.94;4998891;28;19917;-92
2023/10/17 09:22:44;;;;;;;;;;;;;;;7.84;100.00;101896.84;5051156;28;19920;-92
2023/10/17 09:25:16;;;;;;;;;;;;;;;7.92;100.00;101898.97;5061768;28;19912;-92
2023/10/17 09:27:52;;;;;;;;;;;;;;;7.95;100.00;101906.91;5061216;28;19913;-92
2023/10/17 09:30:17;;;;;;;;;;;;;;;8.00;100.00;101898.53;5092522;28;19944;-92
2023/10/17 09:32:42;;;;;;;;;;;;;;;8.00;100.00;101898.53;5074735;28;20308;-92
2023/10/17 09:35:13;;;;;;;;;;;;;;;8.10;100.00;101897.31;5089566;28;19920;-92
2023/10/17 09:38:00;;;;;;;;;;;;;;;8.06;100.00;101899.66;5087597;28;19938;-92
2023/10/17 09:40:30;;;;;;;;;;;;;;;8.08;100.00;101898.94;5077746;28;19931;-91
2023/10/17 09:42:56;;;;;;;;;;;;;;;8.15;100.00;101900.13;5053946;28;19912;-90
2023/10/17 09:45:21;;;;;;;;;;;;;;;8.16;100.00;101901.91;5058096;28;20050;-92
2023/10/17 09:47:51;;;;;;;;;;;;;;;8.16;100.00;101897.59;5057726;28;20378;-91
2023/10/17 09:50:19;;;;;;;;;;;;;;;8.20;100.00;101901.25;5072148;28;19924;-91
2023/10/17 09:52:48;;;;;;;;;;;;;;;8.30;99.30;101903.50;5070104;28;19916;-92
2023/10/17 09:55:16;;;;;;;;;;;;;;;8.38;100.00;101898.69;5074753;28;19913;-92
2023/10/17 09:57:50;;;;;;;;;;;;;;;8.40;100.00;101904.84;5052440;28;19912;-92
2023/10/17 10:00:18;;;;;;;;;;;;;;;8.44;100.00;101906.78;5076288;28;19916;-92
2023/10/17 10:02:46;;;;;;;;;;;;;;;8.52;100.00;101899.41;5070664;28;20009;-92
2023/10/17 10:05:28;;;;;;;;;;;;;;;8.58;99.92;101897.09;5052438;28;19924;-92
2023/10/17 10:07:53;;;;;;;;;;;;;;;8.65;97.80;101903.50;5070490;28;20374;-92
2023/10/17 10:10:40;;;;;;;;;;;;;;;8.75;99.77;101900.53;5054355;28;19916;-91
2023/10/17 10:13:13;;;;;;;;;;;;;;;8.98;100.00;101904.22;5055881;28;19952;-92
2023/10/17 10:16:01;;;;;;;;;;;;;;;9.20;99.76;101898.28;5053241;28;19912;-91
2023/10/17 10:18:32;;;;;;;;;;;;;;;9.46;98.38;101888.19;5086786;28;20660;-92
2023/10/17 10:21:15;;;;;;;;;;;;;;;9.66;99.33;101882.97;5049056;28;20307;-92
2023/10/17 10:23:43;;;;;;;;;;;;;;;9.83;97.97;101884.59;5068044;28;19916;-91
2023/10/17 10:29:30;;;;;;;;;;;;;;;;;;;;;
2023/10/17 10:32:10;;;;;;;;;;;;;;;10.37;92.05;101872.97;5071370;28;19912;-92
2023/10/17 10:34:39;;;;;;;;;;;;;;;10.53;92.06;101872.81;5053004;28;19912;-92
2023/10/17 10:37:13;;;;;;;;;;;;;;;10.63;89.17;101868.84;5052911;28;19912;-91
2023/10/17 10:39:49;;;;;;;;;;;;;;;10.80;91.66;101869.50;5039621;28;19912;-92
2023/10/17 10:42:30;;;;;;;;;;;;;;;;;;;;;
2023/10/17 10:44:56;;;;;;;;;;;;;;;11.00;88.10;101866.78;5070846;28;19927;-93
2023/10/17 10:47:24;;;;;;;;;;;;;;;11.00;86.60;101869.41;5050127;28;19963;-92
2023/10/17 10:50:08;;;;;;;;;;;;;;;11.11;90.23;101860.28;5064096;28;19920;-91
2023/10/17 10:55:59;;;;;;;;;;;;;;;11.40;86.62;101850.03;5009444;28;19917;-92
2023/10/17 11:01:52;;;;;;;;;;;;;;;11.73;88.59;101833.75;5053219;28;20151;-91
2023/10/17 11:07:41;;;;;;;;;;;;;;;11.99;87.41;101835.59;5073911;28;20351;-92
2023/10/17 11:10:32;;;;;;;;;;;;;;;;;;;;;
2023/10/17 11:13:01;;;;;;;;;;;;;;;12.35;83.13;101829.81;5075113;28;19923;-91
2023/10/17 11:16:19;;;;;;;;;;;;;;;12.35;81.83;101818.44;5056575;28;19912;-92
2023/10/17 11:18:59;;;;;;;;;;;;;;;12.49;80.13;101826.75;5022411;28;19912;-91
2023/10/17 11:21:29;;;;;;;;;;;;;;;12.52;79.44;101817.25;5036259;28;20385;-91
2023/10/17 11:23:59;;;;;;;;;;;;;;;12.58;77.82;101806.09;5042858;28;20334;-92
2023/10/17 11:26:37;;;;;;;;;;;;;;;12.61;80.94;101806.19;5056106;28;19978;-91
2023/10/17 11:29:13;;;;;;;;;;;;;;;12.73;79.98;101807.41;5051237;28;19994;-91
2023/10/17 11:35:09;;;;;;;;;;;;;;;12.62;79.44;101788.78;5093320;28;19912;-91
2023/10/17 11:37:51;;;;;;;;;;;;;;;12.82;79.57;101785.03;5064160;28;19922;-91
2023/10/17 11:40:44;;;;;;;;;;;;;;;12.91;80.71;101784.41;5062360;28;19962;-92
2023/10/17 11:43:28;;;;;;;;;;;;;;;13.09;78.92;101791.91;5094207;28;19919;-91
2023/10/17 11:46:12;;;;;;;;;;;;;;;13.19;79.65;101788.72;5076415;28;19986;-92
2023/10/17 11:49:09;;;;;;;;;;;;;;;13.21;76.01;101794.88;5015801;28;20405;-91
2023/10/17 11:51:59;;;;;;;;;;;;;;;13.28;74.34;101787.19;4993520;28;19914;-92
2023/10/17 11:54:37;;;;;;;;;;;;;;;13.14;74.84;101776.34;5011861;28;19914;-91
2023/10/17 12:00:44;;;;;;;;;;;;;;;13.17;77.13;101782.53;5006458;28;20387;-91
2023/10/17 12:03:19;;;;;;;;;;;;;;;13.27;75.95;101781.06;5011392;28;19916;-92
2023/10/17 12:05:44;;;;;;;;;;;;;;;13.27;76.00;101794.16;4994267;28;20316;-92
2023/10/17 12:08:25;;;;;;;;;;;;;;;13.34;74.98;101790.91;4993180;28;20041;-91
2023/10/17 12:10:56;;;;;;;;;;;;;;;13.45;73.03;101790.31;5011317;28;19987;-91
2023/10/17 12:13:31;;;;;;;;;;;;;;;13.45;71.14;101795.53;5011005;28;20375;-91
2023/10/17 12:15:57;;;;;;;;;;;;;;;13.35;73.65;101782.22;4994727;28;19913;-91
2023/10/17 12:18:37;;;;;;;;;;;;;;;13.27;69.32;101767.13;5010938;28;19921;-92
2023/10/17 12:21:14;;;;;;;;;;;;;;;13.19;74.79;101751.19;4994421;28;20579;-92
2023/10/17 12:23:56;;;;;;;;;;;;;;;13.30;73.79;101752.38;5010719;28;19933;-91
2023/10/17 12:26:36;;;;;;;;;;;;;;;13.44;74.87;101742.31;5048735;28;19916;-92
2023/10/17 12:29:04;;;;;;;;;;;;;;;13.47;75.12;101744.09;5054152;28;20374;-92
2023/10/17 12:31:35;;;;;;;;;;;;;;;13.56;76.24;101734.75;5054965;28;19916;-91
2023/10/17 12:34:18;;;;;;;;;;;;;;;13.72;75.70;101729.91;5054333;28;20002;-91
2023/10/17 12:36:49;;;;;;;;;;;;;;;13.81;72.57;101729.25;5054782;28;20382;-92
2023/10/17 12:39:31;;;;;;;;;;;;;;;13.78;71.41;101718.69;5055110;28;19919;-91
2023/10/17 12:42:02;;;;;;;;;;;;;;;13.92;71.04;101709.44;5055245;28;19916;-91
2023/10/17 12:44:32;;;;;;;;;;;;;;;13.98;70.23;101701.72;5055577;28;19912;-91
2023/10/17 12:47:05;;;;;;;;;;;;;;;13.92;72.04;101693.72;5059414;28;19920;-91
2023/10/17 12:49:30;;;;;;;;;;;;;;;13.91;70.74;101686.72;5062267;28;19977;-92
2023/10/17 12:52:01;;;;;;;;;;;;;;;13.83;70.84;101690.88;5086176;28;20379;-91
2023/10/17 12:54:29;;;;;;;;;;;;;;;13.79;70.02;101681.16;5053659;28;19912;-91
2023/10/17 12:59:55;;;;;;;;;;;;;;;13.72;70.52;101673.16;5086190;28;20332;-91
2023/10/17 13:02:25;;;;;;;;;;;;;;;13.61;65.83;101673.75;5053751;28;19918;-91
2023/10/17 13:04:50;;;;;;;;;;;;;;;13.49;68.39;101671.72;5060613;28;19963;-91
2023/10/17 13:07:21;;;;;;;;;;;;;;;13.51;69.12;101675.25;5051949;28;19944;-92
2023/10/17 13:09:49;;;;;;;;;;;;;;;13.47;69.75;101676.94;5054660;28;19916;-91
2023/10/17 13:12:14;;;;;;;;;;;;;;;13.30;68.79;101679.06;5053255;28;19916;-91
2023/10/17 13:14:40;;;;;;;;;;;;;;;13.24;70.04;101676.31;5063305;28;19924;-90
2023/10/17 13:17:13;;;;;;;;;;;;;;;13.10;70.86;101667.22;5076421;28;19951;-91
2023/10/17 13:19:43;;;;;;;;;;;;;;;13.21;69.88;101671.88;5070866;28;20370;-91
2023/10/17 13:22:14;;;;;;;;;;;;;;;13.21;69.69;101664.03;5059776;28;20375;-91
2023/10/17 13:24:40;;;;;;;;;;;;;;;13.22;70.92;101667.50;5080222;28;19916;-91
2023/10/17 13:27:11;;;;;;;;;;;;;;;13.26;69.47;101655.41;5088961;28;19922;-90
2023/10/17 13:29:36;;;;;;;;;;;;;;;13.20;71.56;101661.38;5056378;28;20390;-91
2023/10/17 13:32:07;;;;;;;;;;;;;;;13.20;70.80;101669.22;5052963;28;19943;-90
2023/10/17 13:34:38;;;;;;;;;;;;;;;13.27;71.48;101673.78;5053809;28;19987;-91
2023/10/17 13:37:07;;;;;;;;;;;;;;;13.23;68.97;101669.28;5042588;28;20328;-91
2023/10/17 13:39:41;;;;;;;;;;;;;;;13.12;70.33;101652.41;5072086;28;19995;-91
2023/10/17 13:42:07;;;;;;;;;;;;;;;13.03;72.14;101659.22;5073461;28;19916;-91
2023/10/17 13:44:34;;;;;;;;;;;;;;;12.93;72.69;101651.06;5077549;28;20011;-91
2023/10/17 13:46:59;;;;;;;;;;;;;;;12.81;73.09;101639.41;5067405;28;20458;-91
2023/10/17 13:49:26;;;;;;;;;;;;;;;12.85;73.78;101648.25;5077770;28;20000;-91
2023/10/17 13:51:53;;;;;;;;;;;;;;;12.97;69.84;101652.91;5061814;28;19966;-90
2023/10/17 13:54:19;;;;;;;;;;;;;;;13.04;72.16;101645.25;5076359;28;19983;-90
2023/10/17 13:56:44;;;;;;;;;;;;;;;12.99;72.54;101649.50;5041756;28;20008;-91
2023/10/17 13:59:09;;;;;;;;;;;;;;;13.03;71.07;101653.06;5052790;28;20314;-90
2023/10/17 14:01:47;;;;;;;;;;;;;;;13.05;72.93;101647.03;5052149;28;19926;-91
2023/10/17 14:04:12;;;;;;;;;;;;;;;13.12;72.38;101644.56;5054881;28;20491;-90
2023/10/17 14:06:39;;;;;;;;;;;;;;;13.16;72.13;101639.44;5062335;28;19999;-91
2023/10/17 14:09:05;;;;;;;;;;;;;;;13.14;70.34;101635.06;5077506;28;19950;-91
2023/10/17 14:11:32;;;;;;;;;;;;;;;13.11;72.65;101629.75;5069432;28;19912;-91
2023/10/17 14:13:58;;;;;;;;;;;;;;;13.11;71.97;101640.22;5064280;28;20370;-91
2023/10/17 14:16:23;;;;;;;;;;;;;;;13.08;72.24;101635.78;5061506;28;20409;-90
2023/10/17 14:21:41;;;;;;;;;;;;;;;13.14;70.07;101625.47;5029530;28;19912;-90
2023/10/17 14:24:49;;;;;;;;;;;;;;;13.05;71.83;101638.31;5070694;28;19981;-90
2023/10/17 14:26:55;;;;;;;;;;;;;;;12.97;73.69;101635.47;5063962;28;19934;-91
2023/10/17 14:29:23;;;;;;;;;;;;;;;13.05;71.49;101628.72;5097541;28;19931;-91
2023/10/17 14:31:48;;;;;;;;;;;;;;;13.00;73.72;101621.59;5078713;28;19919;-91
2023/10/17 14:34:13;;;;;;;;;;;;;;;13.12;73.43;101615.78;5051708;28;19920;-91
2023/10/17 14:36:39;;;;;;;;;;;;;;;13.35;71.70;101614.69;5051372;28;20336;-90
2023/10/17 14:39:09;;;;;;;;;;;;;;;13.21;70.89;101608.19;5051097;28;19951;-91
2023/10/17 14:41:36;;;;;;;;;;;;;;;13.11;72.83;101606.19;5075996;28;19920;-90
2023/10/17 14:44:02;;;;;;;;;;;;;;;13.12;72.16;101597.47;5042324;28;19963;-90
2023/10/17 14:46:27;;;;;;;;;;;;;;;13.20;69.35;101594.19;5050241;28;19973;-91
2023/10/17 14:48:52;;;;;;;;;;;;;;;13.17;72.43;101586.28;5043652;28;19917;-91
2023/10/17 14:51:26;;;;;;;;;;;;;;;13.26;72.63;101588.22;5040281;28;19916;-90
2023/10/17 14:53:52;;;;;;;;;;;;;;;13.22;70.95;101589.00;5058275;28;19913;-91
2023/10/17 14:56:17;;;;;;;;;;;;;;;13.13;69.28;101584.44;5065525;28;20061;-91
2023/10/17 14:58:49;;;;;;;;;;;;;;;12.90;69.41;101576.00;5067998;28;19920;-91
2023/10/17 15:01:14;;;;;;;;;;;;;;;12.92;72.62;101570.81;5055186;28;19917;-90
2023/10/17 15:03:41;;;;;;;;;;;;;;;12.91;71.74;101564.69;5041133;28;19916;-91
2023/10/17 15:06:09;;;;;;;;;;;;;;;13.10;72.30;101567.78;5067456;28;19912;-91
2023/10/17 15:08:37;;;;;;;;;;;;;;;13.12;71.14;101568.69;5057967;28;19912;-91
2023/10/17 15:11:06;;;;;;;;;;;;;;;13.02;71.77;101562.34;5060479;28;19912;-91
2023/10/17 15:13:32;;;;;;;;;;;;;;;12.86;71.42;101561.06;5061769;28;19920;-90
2023/10/17 15:16:00;;;;;;;;;;;;;;;12.90;72.35;101557.69;5057246;28;19987;-91
2023/10/17 15:18:35;;;;;;;;;;;;;;;12.96;72.45;101568.31;5042370;28;20052;-91
2023/10/17 15:21:08;;;;;;;;;;;;;;;12.96;73.33;101570.03;5060570;28;19913;-90
2023/10/17 15:23:42;;;;;;;;;;;;;;;12.91;72.92;101562.06;5042021;28;20527;-91
2023/10/17 15:26:11;;;;;;;;;;;;;;;12.80;74.07;101566.16;5042830;28;19917;-91
2023/10/17 15:28:45;;;;;;;;;;;;;;;12.70;74.84;101565.91;5062955;28;19932;-90
2023/10/17 15:31:14;;;;;;;;;;;;;;;12.68;74.72;101570.19;5050475;28;19995;-90
2023/10/17 15:33:40;;;;;;;;;;;;;;;12.61;73.98;101570.88;5063246;28;19922;-91
2023/10/17 15:36:08;;;;;;;;;;;;;;;12.50;75.72;101569.72;5072011;28;20435;-91
2023/10/17 15:38:36;;;;;;;;;;;;;;;12.40;75.90;101576.41;5090394;28;20378;-91
2023/10/17 15:41:01;;;;;;;;;;;;;;;12.38;76.87;101567.63;5078814;28;19982;-91
2023/10/17 15:43:32;;;;;;;;;;;;;;;12.40;76.59;101570.28;5118983;27;20451;-90
2023/10/17 15:46:00;;;;;;;;;;;;;;;12.17;76.85;101566.19;5093093;28;19916;-91